Time;durP1;ratioP1;P1;durP2;ratioP2;P2;SDS_P1;SDS_P2;PMS_P1;PMS_P2;Temp;Humidity;BMP_temperature;BMP_pressure;BME280_temperature;BME280_humidity;BME280_pressure;Samples;Min_cycle;Max_cycle;Signal;HPM_P1;HPM_P2
2023/03/02 00:01:08;;;;;;;39.17;20.75;;;;;;;4.73;100.00;99990.63;5113247;28;20427;-80
2023/03/02 00:03:36;;;;;;;37.30;19.95;;;;;;;4.75;100.00;99993.13;5116913;27;20027;-80
2023/03/02 00:06:06;;;;;;;37.13;20.65;;;;;;;4.84;100.00;99987.81;5130429;27;20031;-80
2023/03/02 00:08:33;;;;;;;41.50;20.48;;;;;;;4.80;100.00;99987.56;5092878;28;20028;-80
2023/03/02 00:11:00;;;;;;;38.25;20.63;;;;;;;4.81;100.00;99986.44;5093621;28;20071;-73
2023/03/02 00:13:27;;;;;;;42.15;22.27;;;;;;;4.77;100.00;99988.97;5125425;27;20386;-81
2023/03/02 00:15:53;;;;;;;36.80;20.92;;;;;;;4.72;100.00;99993.72;5095597;27;20398;-81
2023/03/02 00:18:18;;;;;;;45.53;23.77;;;;;;;4.82;100.00;99985.31;5092726;28;20039;-81
2023/03/02 00:20:44;;;;;;;43.03;24.85;;;;;;;4.80;100.00;99968.16;5100340;28;20049;-81
2023/03/02 00:23:09;;;;;;;40.92;23.67;;;;;;;4.92;100.00;99974.19;5111492;28;20035;-81
2023/03/02 00:25:35;;;;;;;37.60;22.67;;;;;;;4.94;100.00;99968.38;5112813;28;20076;-79
2023/03/02 00:28:01;;;;;;;41.10;23.02;;;;;;;4.82;100.00;99976.19;5110547;28;20402;-80
2023/03/02 00:30:26;;;;;;;41.50;23.83;;;;;;;4.77;100.00;99980.66;5111740;28;20028;-80
2023/03/02 00:32:51;;;;;;;43.58;23.85;;;;;;;4.83;100.00;99978.69;5111401;28;20077;-78
2023/03/02 00:35:17;;;;;;;44.20;24.52;;;;;;;4.75;100.00;99973.72;5131101;27;20030;-80
2023/03/02 00:37:42;;;;;;;45.08;24.38;;;;;;;4.82;100.00;99982.56;5131889;27;20083;-81
2023/03/02 00:40:09;;;;;;;46.90;25.42;;;;;;;4.88;100.00;99986.97;5132766;27;20024;-78
2023/03/02 00:42:37;;;;;;;46.95;23.75;;;;;;;4.78;100.00;99971.22;5119474;27;20015;-80
2023/03/02 00:45:04;;;;;;;44.35;24.55;;;;;;;4.92;100.00;99976.16;5111766;27;20409;-80
2023/03/02 00:47:33;;;;;;;43.88;24.15;;;;;;;4.88;100.00;99970.34;5127718;27;20557;-80
2023/03/02 00:49:59;;;;;;;47.28;23.98;;;;;;;4.78;100.00;99962.06;5112260;28;20024;-79
2023/03/02 00:52:25;;;;;;;51.80;25.58;;;;;;;4.73;100.00;99965.69;5112434;28;20024;-81
2023/03/02 00:54:50;;;;;;;45.53;24.23;;;;;;;4.89;100.00;99965.63;5112895;28;20023;-81
2023/03/02 00:57:16;;;;;;;43.42;23.17;;;;;;;4.83;100.00;99962.06;5111057;28;20112;-81
2023/03/02 00:59:41;;;;;;;54.72;25.02;;;;;;;4.85;100.00;99957.06;5099231;27;20024;-78
2023/03/02 01:02:07;;;;;;;46.80;24.33;;;;;;;4.88;100.00;99970.34;5123921;27;20030;-81
2023/03/02 01:04:38;;;;;;;49.00;25.52;;;;;;;4.91;100.00;99960.63;5120229;27;20478;-80
2023/03/02 01:07:09;;;;;;;45.33;24.08;;;;;;;5.00;100.00;99963.63;5112058;28;20410;-80
2023/03/02 01:09:35;;;;;;;50.92;25.98;;;;;;;4.91;100.00;99958.69;5111079;28;20110;-81
2023/03/02 01:12:01;;;;;;;56.08;27.60;;;;;;;4.89;100.00;99952.59;5109858;28;20043;-81
2023/03/02 01:14:27;;;;;;;50.05;25.13;;;;;;;4.83;100.00;99953.75;5112044;28;20026;-81
2023/03/02 01:16:52;;;;;;;49.65;25.35;;;;;;;4.80;100.00;99950.72;5112141;28;20094;-81
2023/03/02 01:19:19;;;;;;;56.78;26.10;;;;;;;4.90;100.00;99948.69;5116205;27;20023;-80
2023/03/02 01:21:44;;;;;;;49.00;26.60;;;;;;;4.84;100.00;99949.84;5126171;27;20491;-81
2023/03/02 01:24:11;;;;;;;56.83;25.70;;;;;;;4.84;100.00;99947.09;5125568;27;20036;-80
2023/03/02 01:26:37;;;;;;;47.03;23.20;;;;;;;4.77;100.00;99952.94;5109804;28;20035;-79
2023/03/02 01:29:03;;;;;;;50.63;26.15;;;;;;;4.79;100.00;99938.78;5101698;28;20035;-80
2023/03/02 01:31:29;;;;;;;51.33;26.25;;;;;;;4.70;100.00;99946.03;5115604;28;20027;-81
2023/03/02 01:33:55;;;;;;;53.40;28.38;;;;;;;4.78;100.00;99951.81;5115691;28;20451;-80
2023/03/02 01:36:21;;;;;;;52.33;29.13;;;;;;;4.72;100.00;99949.38;5110765;28;20031;-81
2023/03/02 01:38:47;;;;;;;49.28;26.70;;;;;;;4.71;100.00;99942.16;5111649;28;20039;-80
2023/03/02 01:41:13;;;;;;;69.60;29.63;;;;;;;4.70;100.00;99946.03;5112792;28;20042;-80
2023/03/02 01:43:38;;;;;;;50.53;28.45;;;;;;;4.60;100.00;99933.06;5112316;28;20449;-80
2023/03/02 01:46:13;;;;;;;56.55;29.30;;;;;;;4.79;100.00;99944.31;5124537;27;20116;-80
2023/03/02 01:49:03;;;;;;;48.13;27.95;;;;;;;4.74;100.00;99930.50;5123598;28;20031;-80
2023/03/02 01:51:34;;;;;;;55.53;27.40;;;;;;;4.77;100.00;99938.25;5127562;27;20547;-81
2023/03/02 01:54:04;;;;;;;55.70;29.67;;;;;;;4.76;100.00;99928.28;5110537;28;20033;-80
2023/03/02 01:56:35;;;;;;;55.35;26.70;;;;;;;4.73;100.00;99928.84;5110306;28;20467;-78
2023/03/02 01:59:06;;;;;;;51.30;27.40;;;;;;;4.88;100.00;99937.06;5111739;28;20038;-78
2023/03/02 02:01:35;;;;;;;45.97;23.42;;;;;;;4.68;100.00;99942.72;5114990;28;20039;-80
2023/03/02 02:04:01;;;;;;;49.67;26.23;;;;;;;4.83;100.00;99934.34;5118534;28;20111;-80
2023/03/02 02:07:07;;;;;;;54.03;26.40;;;;;;;4.96;100.00;99943.97;5123704;28;20035;-81
2023/03/02 02:09:40;;;;;;;42.15;24.02;;;;;;;5.02;100.00;99930.91;5012239;28;20473;-81
2023/03/02 02:12:05;;;;;;;44.88;22.92;;;;;;;4.98;100.00;99925.09;5029736;28;20057;-80
2023/03/02 02:14:31;;;;;;;36.63;21.27;;;;;;;4.93;100.00;99936.22;5055265;28;20036;-80
2023/03/02 02:16:57;;;;;;;43.50;20.25;;;;;;;4.92;100.00;99931.78;5111752;27;20035;-80
2023/03/02 02:19:34;;;;;;;38.67;19.60;;;;;;;4.88;100.00;99926.00;5112150;28;20390;-81
2023/03/02 02:22:00;;;;;;;38.15;20.13;;;;;;;4.66;100.00;99907.00;5114975;28;20064;-81
2023/03/02 02:24:43;;;;;;;35.28;20.20;;;;;;;4.83;100.00;99917.72;5114237;28;20490;-81
2023/03/02 02:27:10;;;;;;;46.25;20.73;;;;;;;4.82;100.00;99920.75;5117110;27;20111;-81
2023/03/02 02:29:44;;;;;;;44.55;21.40;;;;;;;4.78;100.00;99903.88;5114972;27;20056;-80
2023/03/02 02:32:20;;;;;;;54.17;23.45;;;;;;;4.85;100.00;99915.47;5113748;28;20027;-80
2023/03/02 02:34:52;;;;;;;44.38;22.75;;;;;;;4.86;100.00;99914.34;5122854;27;20070;-81
2023/03/02 02:37:48;;;;;;;44.83;21.83;;;;;;;4.97;100.00;99911.53;5114818;28;20031;-80
2023/03/02 02:40:39;;;;;;;44.83;22.08;;;;;;;4.84;100.00;99913.81;5113613;28;20028;-80
2023/03/02 02:43:06;;;;;;;41.45;21.63;;;;;;;4.87;100.00;99912.41;5104338;28;20047;-81
2023/03/02 02:45:32;;;;;;;41.83;21.23;;;;;;;4.86;100.00;99907.97;5130105;27;20026;-80
2023/03/02 02:47:58;;;;;;;42.22;23.85;;;;;;;5.08;100.00;99915.06;5118231;27;20375;-80
2023/03/02 02:50:29;;;;;;;41.03;22.38;;;;;;;5.01;100.00;99907.91;5127523;27;20037;-80
2023/03/02 02:53:18;;;;;;;38.00;21.38;;;;;;;4.99;100.00;99903.75;5113245;28;20031;-81
2023/03/02 02:55:47;;;;;;;41.85;21.25;;;;;;;4.94;100.00;99901.84;5118179;27;20039;-81
2023/03/02 02:58:34;;;;;;;35.93;19.10;;;;;;;4.93;100.00;99900.19;5131530;27;20029;-80
2023/03/02 03:01:00;;;;;;;35.17;18.40;;;;;;;4.95;100.00;99897.94;5114587;28;20409;-81
2023/03/02 03:03:29;;;;;;;35.58;18.88;;;;;;;4.99;100.00;99896.25;5115471;27;20059;-81
2023/03/02 03:05:57;;;;;;;37.88;20.45;;;;;;;5.06;100.00;99904.25;5134715;27;20109;-81
2023/03/02 03:08:44;;;;;;;36.58;18.80;;;;;;;5.02;100.00;99917.03;5134862;27;20023;-81
2023/03/02 03:11:18;;;;;;;26.58;16.58;;;;;;;4.88;100.00;99903.81;5134412;27;20043;-81
2023/03/02 03:13:45;;;;;;;34.08;16.63;;;;;;;4.88;100.00;99898.25;5134781;27;20034;-81
2023/03/02 03:16:16;;;;;;;29.98;15.75;;;;;;;4.82;100.00;99898.59;5125745;27;20169;-80
2023/03/02 03:18:45;;;;;;;36.67;17.13;;;;;;;4.70;100.00;99901.69;5112738;28;20084;-81
2023/03/02 03:21:11;;;;;;;30.55;15.77;;;;;;;4.66;100.00;99901.44;5113291;27;20023;-80
2023/03/02 03:23:37;;;;;;;35.13;16.67;;;;;;;4.77;100.00;99897.50;5111615;28;20599;-80
2023/03/02 03:26:06;;;;;;;35.70;14.65;;;;;;;4.78;100.00;99896.38;5119523;27;20091;-80
2023/03/02 03:28:32;;;;;;;32.88;16.85;;;;;;;4.87;100.00;99899.38;5134178;27;20581;-80
2023/03/02 03:30:58;;;;;;;31.83;15.13;;;;;;;4.81;100.00;99902.47;5126105;27;20020;-81
2023/03/02 03:33:24;;;;;;;34.80;15.40;;;;;;;4.79;100.00;99902.75;5108885;27;20159;-80
2023/03/02 03:35:49;;;;;;;33.95;16.45;;;;;;;4.83;100.00;99900.25;5131143;27;20026;-80
2023/03/02 03:38:16;;;;;;;26.63;14.20;;;;;;;4.75;100.00;99904.44;5132939;27;20068;-81
2023/03/02 03:40:41;;;;;;;32.50;15.40;;;;;;;4.70;100.00;99907.22;5134282;27;20027;-81
2023/03/02 03:43:07;;;;;;;33.97;16.17;;;;;;;4.92;100.00;99909.63;5133470;27;20123;-81
2023/03/02 03:45:33;;;;;;;34.78;15.02;;;;;;;4.85;100.00;99915.47;5116824;27;20191;-80
2023/03/02 03:47:58;;;;;;;40.22;16.67;;;;;;;4.78;100.00;99909.41;5114830;27;20436;-80
2023/03/02 03:50:24;;;;;;;33.78;14.98;;;;;;;4.77;100.00;99908.59;5113584;28;20031;-80
2023/03/02 03:52:49;;;;;;;33.25;15.45;;;;;;;4.84;100.00;99911.06;5113401;28;20102;-81
2023/03/02 03:55:15;;;;;;;37.08;16.30;;;;;;;4.80;100.00;99903.59;5113519;27;20470;-80
2023/03/02 03:57:40;;;;;;;36.47;16.42;;;;;;;4.76;100.00;99906.09;5133905;27;20030;-81
2023/03/02 04:00:09;;;;;;;34.53;16.65;;;;;;;4.81;100.00;99917.16;5133737;27;20035;-81
2023/03/02 04:02:36;;;;;;;37.08;17.95;;;;;;;4.77;100.00;99916.06;5115870;27;20062;-81
2023/03/02 04:05:05;;;;;;;33.80;17.50;;;;;;;4.89;100.00;99916.56;5116461;27;20032;-81
2023/03/02 04:07:32;;;;;;;33.93;16.63;;;;;;;4.92;100.00;99923.47;5115025;27;20509;-81
2023/03/02 04:10:02;;;;;;;35.65;17.40;;;;;;;4.76;100.00;99922.72;5113001;28;20492;-80
2023/03/02 04:12:36;;;;;;;35.47;16.98;;;;;;;4.78;100.00;99920.50;5113038;28;20041;-81
2023/03/02 04:15:04;;;;;;;30.70;16.92;;;;;;;4.66;100.00;99917.22;5113336;27;20020;-80
2023/03/02 04:17:29;;;;;;;40.47;16.85;;;;;;;4.74;100.00;99902.78;5110825;28;20093;-79
2023/03/02 04:19:55;;;;;;;36.63;18.33;;;;;;;4.69;100.00;99902.78;5112945;28;20027;-81
2023/03/02 04:22:21;;;;;;;35.72;17.52;;;;;;;4.58;100.00;99907.56;5110593;28;20053;-81
2023/03/02 04:24:50;;;;;;;37.28;16.95;;;;;;;4.71;100.00;99895.88;5112459;27;20031;-81
2023/03/02 04:27:16;;;;;;;34.85;18.27;;;;;;;4.86;100.00;99900.50;5133331;27;20393;-81
2023/03/02 04:29:43;;;;;;;37.03;17.75;;;;;;;4.76;100.00;99906.09;5132940;27;20491;-81
2023/03/02 04:32:10;;;;;;;43.03;19.23;;;;;;;4.82;100.00;99916.03;5113871;27;20019;-81
2023/03/02 04:34:36;;;;;;;34.90;16.83;;;;;;;4.88;100.00;99920.44;5116540;27;20402;-81
2023/03/02 04:37:01;;;;;;;30.08;16.75;;;;;;;4.91;100.00;99919.06;5132333;27;20058;-81
2023/03/02 04:39:27;;;;;;;44.08;18.85;;;;;;;5.00;100.00;99925.63;5119316;27;20050;-81
2023/03/02 04:41:52;;;;;;;32.05;17.33;;;;;;;5.07;100.00;99922.56;5112643;28;20023;-81
2023/03/02 04:44:19;;;;;;;33.63;18.27;;;;;;;4.92;100.00;99915.97;5121521;27;20027;-81
2023/03/02 04:46:45;;;;;;;32.88;15.60;;;;;;;4.90;100.00;99917.41;5126085;27;20485;-81
2023/03/02 04:49:12;;;;;;;31.95;15.27;;;;;;;5.01;100.00;99929.25;5114595;27;20051;-81
2023/03/02 04:51:41;;;;;;;32.72;17.00;;;;;;;4.94;100.00;99917.63;5112354;28;20051;-81
2023/03/02 04:54:15;;;;;;;32.08;15.88;;;;;;;5.01;100.00;99932.00;5110932;28;20016;-81
2023/03/02 04:56:41;;;;;;;31.38;15.95;;;;;;;4.99;100.00;99937.03;5127122;27;20123;-80
2023/03/02 04:59:06;;;;;;;31.33;17.73;;;;;;;4.90;100.00;99923.75;5132499;27;20055;-81
2023/03/02 05:01:32;;;;;;;33.15;18.67;;;;;;;4.99;100.00;99932.28;5099716;27;20054;-81
2023/03/02 05:03:57;;;;;;;29.20;19.23;;;;;;;4.78;100.00;99926.03;5111686;27;20048;-81
2023/03/02 05:06:24;;;;;;;36.30;18.63;;;;;;;4.83;100.00;99928.81;5132970;27;20038;-81
2023/03/02 05:08:50;;;;;;;32.50;18.98;;;;;;;4.72;100.00;99929.97;5132540;27;20031;-81
2023/03/02 05:11:23;;;;;;;31.75;19.50;;;;;;;4.68;100.00;99934.41;5117588;27;20043;-81
2023/03/02 05:13:54;;;;;;;32.78;20.08;;;;;;;4.77;100.00;99932.69;5110647;28;20181;-80
2023/03/02 05:16:22;;;;;;;37.30;20.48;;;;;;;4.82;100.00;99931.84;5105245;27;20040;-81
2023/03/02 05:18:48;;;;;;;37.42;20.77;;;;;;;4.72;100.00;99935.50;5100291;28;20023;-81
2023/03/02 05:21:15;;;;;;;35.75;21.58;;;;;;;4.71;100.00;99933.84;5124068;27;20381;-80
2023/03/02 05:23:41;;;;;;;33.22;20.35;;;;;;;4.80;100.00;99934.88;5130460;27;20027;-80
2023/03/02 05:26:07;;;;;;;37.83;19.58;;;;;;;4.74;100.00;99936.84;5121192;27;20035;-81
2023/03/02 05:28:33;;;;;;;38.22;20.30;;;;;;;4.79;100.00;99938.78;5110745;28;20046;-80
2023/03/02 05:30:59;;;;;;;33.75;20.23;;;;;;;4.77;100.00;99935.47;5109424;28;20027;-81
2023/03/02 05:33:24;;;;;;;36.67;20.33;;;;;;;4.81;100.00;99941.28;5096070;28;20028;-80
2023/03/02 05:35:50;;;;;;;42.13;21.33;;;;;;;4.69;100.00;99934.13;5132010;27;20481;-79
2023/03/02 05:38:15;;;;;;;39.38;21.73;;;;;;;4.72;100.00;99930.78;5112911;27;20109;-76
2023/03/02 05:40:41;;;;;;;42.72;22.70;;;;;;;4.67;100.00;99930.81;5111361;28;20027;-76
2023/03/02 05:43:08;;;;;;;43.95;23.40;;;;;;;4.66;100.00;99939.41;5111678;28;20500;-80
2023/03/02 05:45:36;;;;;;;42.15;24.27;;;;;;;4.59;100.00;99946.09;5112257;28;20046;-77
2023/03/02 05:48:02;;;;;;;45.15;24.52;;;;;;;4.63;100.00;99951.88;5127917;27;20081;-77
2023/03/02 05:50:28;;;;;;;42.60;25.10;;;;;;;4.70;100.00;99946.88;5114516;28;20047;-77
2023/03/02 05:52:53;;;;;;;48.20;27.58;;;;;;;4.57;100.00;99955.78;5114565;27;20472;-78
2023/03/02 05:55:19;;;;;;;41.63;23.08;;;;;;;4.60;100.00;99955.22;5118867;27;20393;-78
2023/03/02 05:57:45;;;;;;;44.47;26.00;;;;;;;4.68;100.00;99951.03;5125030;27;20031;-78
2023/03/02 06:00:12;;;;;;;43.40;24.60;;;;;;;4.76;99.77;99961.53;5110966;28;20023;-77
2023/03/02 06:02:39;;;;;;;50.03;25.20;;;;;;;4.79;99.04;99963.72;5112414;28;20067;-75
2023/03/02 06:05:10;;;;;;;50.97;26.08;;;;;;;4.73;99.92;99962.09;5107803;27;20020;-74
2023/03/02 06:07:36;;;;;;;44.08;24.60;;;;;;;4.69;99.46;99956.28;5106959;27;20061;-77
2023/03/02 06:10:06;;;;;;;50.40;24.92;;;;;;;4.67;99.80;99954.91;5112771;28;20107;-79
2023/03/02 06:12:32;;;;;;;49.17;25.30;;;;;;;4.70;99.40;99957.94;5114021;28;20452;-76
2023/03/02 06:14:58;;;;;;;48.13;25.75;;;;;;;4.50;100.00;99958.88;5120254;27;20032;-77
2023/03/02 06:17:24;;;;;;;46.00;25.60;;;;;;;4.60;100.00;99967.13;5110433;27;20020;-78
2023/03/02 06:19:49;;;;;;;46.60;27.17;;;;;;;4.75;100.00;99973.72;5114140;27;20478;-75
2023/03/02 06:22:15;;;;;;;51.05;27.40;;;;;;;4.81;99.65;99971.75;5113763;28;20023;-77
2023/03/02 06:24:40;;;;;;;43.00;24.10;;;;;;;4.75;98.35;99987.59;5113089;27;20068;-76
2023/03/02 06:27:06;;;;;;;48.20;25.60;;;;;;;4.72;99.01;99982.63;5113207;28;20486;-77
2023/03/02 06:29:31;;;;;;;43.10;25.45;;;;;;;4.57;99.39;99981.53;5114176;28;20024;-77
2023/03/02 06:31:57;;;;;;;42.35;24.40;;;;;;;4.71;99.96;99987.31;5115750;27;20069;-77
2023/03/02 06:34:22;;;;;;;51.40;26.17;;;;;;;4.82;98.60;99988.09;5115937;27;20026;-77
2023/03/02 06:36:48;;;;;;;41.28;24.13;;;;;;;4.84;99.02;99988.66;5119212;27;20509;-77
2023/03/02 06:39:16;;;;;;;43.00;22.75;;;;;;;4.90;98.01;99987.50;5115119;27;20019;-77
2023/03/02 06:41:45;;;;;;;44.78;23.27;;;;;;;4.83;98.93;100000.88;5113311;28;20035;-78
2023/03/02 06:44:12;;;;;;;42.88;22.88;;;;;;;4.85;98.00;100001.41;5112304;28;20058;-77
2023/03/02 06:46:39;;;;;;;45.45;22.35;;;;;;;4.90;97.81;99998.59;5112303;28;20031;-77
2023/03/02 06:49:05;;;;;;;36.38;22.23;;;;;;;4.81;96.87;99996.72;5113434;28;20027;-77
2023/03/02 06:51:30;;;;;;;57.72;24.33;;;;;;;4.98;96.88;99985.28;5112719;28;20023;-78
2023/03/02 06:53:56;;;;;;;42.50;23.95;;;;;;;5.02;96.48;99997.44;5110969;27;20046;-77
2023/03/02 06:56:22;;;;;;;41.60;23.95;;;;;;;4.94;96.90;99996.09;5107642;27;20030;-78
2023/03/02 06:58:48;;;;;;;45.42;23.58;;;;;;;4.90;97.41;99990.28;5109089;27;20508;-77
2023/03/02 07:01:14;;;;;;;41.92;22.58;;;;;;;5.00;96.28;99994.94;5108144;28;20078;-77
2023/03/02 07:03:39;;;;;;;42.72;22.70;;;;;;;5.02;95.80;99986.34;5111504;28;20485;-77
2023/03/02 07:06:06;;;;;;;35.97;20.40;;;;;;;5.09;95.79;99989.66;5110965;28;20473;-76
2023/03/02 07:08:31;;;;;;;45.47;23.40;;;;;;;5.03;95.95;99994.41;5112202;27;20024;-77
2023/03/02 07:10:57;;;;;;;36.50;21.40;;;;;;;5.04;96.62;99997.97;5100237;27;20055;-75
2023/03/02 07:13:22;;;;;;;44.08;22.42;;;;;;;5.10;97.12;99998.78;5109126;27;20106;-74
2023/03/02 07:15:48;;;;;;;32.35;19.48;;;;;;;5.08;94.50;100004.63;5104820;28;20085;-73
2023/03/02 07:18:13;;;;;;;35.75;21.17;;;;;;;5.01;95.74;100004.94;5109668;27;20023;-72
2023/03/02 07:20:39;;;;;;;39.10;23.75;;;;;;;5.08;95.35;100001.88;5102745;27;20053;-75
2023/03/02 07:23:05;;;;;;;35.03;22.05;;;;;;;5.11;96.14;99992.97;5101708;27;20338;-74
2023/03/02 07:25:31;;;;;;;37.85;20.08;;;;;;;5.21;95.62;100000.38;5107172;28;20061;-75
2023/03/02 07:27:57;;;;;;;34.47;21.17;;;;;;;5.26;94.71;99997.59;5106934;27;20106;-73
2023/03/02 07:30:22;;;;;;;51.45;25.63;;;;;;;5.17;94.93;99991.00;5103497;27;20581;-74
2023/03/02 07:32:48;;;;;;;43.33;24.13;;;;;;;5.16;95.18;100001.25;5103869;27;20024;-72
2023/03/02 07:35:15;;;;;;;40.78;23.42;;;;;;;5.19;96.11;99997.91;5105852;27;20374;-74
2023/03/02 07:37:41;;;;;;;42.83;24.10;;;;;;;5.28;95.66;100003.69;5102386;28;20059;-74
2023/03/02 07:40:08;;;;;;;34.03;20.88;;;;;;;5.30;94.92;99997.84;5103049;27;20132;-72
2023/03/02 07:42:34;;;;;;;33.78;20.80;;;;;;;5.28;94.45;99997.28;5107842;27;20023;-75
2023/03/02 07:44:59;;;;;;;38.67;21.20;;;;;;;5.23;93.60;99997.34;5102024;27;20367;-76
2023/03/02 07:47:25;;;;;;;69.93;34.53;;;;;;;5.19;95.38;100006.25;5108565;28;20023;-75
2023/03/02 07:49:50;;;;;;;68.55;43.53;;;;;;;5.15;96.94;100001.56;5109265;28;20374;-75
2023/03/02 07:52:16;;;;;;;39.45;26.75;;;;;;;5.29;95.44;100012.81;5107903;28;20453;-74
2023/03/02 07:54:41;;;;;;;47.70;26.85;;;;;;;5.33;94.90;100013.94;5097205;27;20020;-74
2023/03/02 07:57:07;;;;;;;45.78;26.75;;;;;;;5.25;95.57;100012.59;5103881;27;20050;-71
2023/03/02 07:59:32;;;;;;;61.22;32.78;;;;;;;5.22;95.84;100012.31;5100038;28;20034;-75
2023/03/02 08:01:58;;;;;;;59.28;33.53;;;;;;;5.18;96.75;100006.53;5108039;27;20402;-70
2023/03/02 08:04:24;;;;;;;61.08;39.05;;;;;;;5.32;96.02;100012.28;5101519;28;20111;-76
2023/03/02 08:06:50;;;;;;;58.92;35.88;;;;;;;5.24;96.60;100012.88;5106100;28;20038;-76
2023/03/02 08:09:16;;;;;;;59.50;33.30;;;;;;;5.20;97.45;100010.66;5103870;27;20023;-75
2023/03/02 08:11:41;;;;;;;58.75;33.90;;;;;;;5.12;98.03;100002.94;5107298;28;20442;-75
2023/03/02 08:14:07;;;;;;;52.72;31.55;;;;;;;5.09;98.16;100002.69;5101138;28;20027;-72
2023/03/02 08:16:33;;;;;;;46.95;26.85;;;;;;;5.23;97.02;99997.34;5108034;27;20023;-75
2023/03/02 08:18:59;;;;;;;46.58;28.35;;;;;;;5.27;97.46;99998.41;5106144;28;20024;-76
2023/03/02 08:21:26;;;;;;;51.83;28.65;;;;;;;5.30;97.13;99993.13;5104343;27;20212;-75
2023/03/02 08:23:51;;;;;;;48.08;27.90;;;;;;;5.27;98.71;100001.19;5123732;27;20458;-75
2023/03/02 08:26:18;;;;;;;46.55;23.27;;;;;;;5.26;98.85;99991.22;5107063;27;20033;-75
2023/03/02 08:28:45;;;;;;;41.55;22.38;;;;;;;5.19;97.72;100003.47;5104685;27;20035;-75
2023/03/02 08:31:11;;;;;;;62.05;28.00;;;;;;;5.23;97.64;99992.59;5108297;28;20023;-75
2023/03/02 08:33:37;;;;;;;100.72;30.50;;;;;;;5.24;96.93;100007.31;5102613;28;20422;-74
2023/03/02 08:36:09;;;;;;;75.03;26.60;;;;;;;5.29;96.44;100001.72;5104536;27;20070;-74
2023/03/02 08:38:35;;;;;;;53.28;25.60;;;;;;;5.23;96.65;99995.38;5095987;27;20134;-76
2023/03/02 08:41:06;;;;;;;63.33;28.50;;;;;;;5.26;97.69;99999.53;5107221;28;20031;-74
2023/03/02 08:43:32;;;;;;;53.58;25.55;;;;;;;5.25;97.38;99995.94;5103882;27;20102;-75
2023/03/02 08:45:58;;;;;;;52.88;24.70;;;;;;;5.41;96.26;99995.84;5112754;27;20165;-75
2023/03/02 08:48:25;;;;;;;53.90;22.65;;;;;;;5.32;97.56;100006.72;5107125;27;20484;-75
2023/03/02 08:51:00;;;;;;;52.22;22.88;;;;;;;5.40;96.87;99996.97;5105793;28;20385;-75
2023/03/02 08:53:27;;;;;;;58.72;27.33;;;;;;;5.20;98.04;99987.63;5102979;27;20024;-68
2023/03/02 08:55:52;;;;;;;56.03;25.10;;;;;;;5.24;97.69;99993.44;5104575;27;20116;-70
2023/03/02 08:58:18;;;;;;;62.58;32.03;;;;;;;5.24;97.91;99993.44;5109852;27;21938;-72
2023/03/02 09:00:44;;;;;;;59.10;32.47;;;;;;;5.28;96.85;99995.38;5102573;27;20049;-71
2023/03/02 09:03:09;;;;;;;67.43;32.92;;;;;;;5.36;97.37;99999.47;5104533;28;20080;-73
2023/03/02 09:05:35;;;;;;;58.60;29.05;;;;;;;5.31;96.81;99986.47;5099948;27;20102;-72
2023/03/02 09:08:01;;;;;;;49.55;23.40;;;;;;;5.29;98.79;99991.47;5097877;28;20080;-71
2023/03/02 09:10:26;;;;;;;47.92;23.25;;;;;;;5.36;97.62;99991.16;5101013;28;20040;-69
2023/03/02 09:12:52;;;;;;;48.80;23.85;;;;;;;5.43;96.72;99994.44;5106108;28;20062;-73
2023/03/02 09:15:17;;;;;;;55.45;23.73;;;;;;;5.24;97.74;99994.25;5104587;28;20031;-70
2023/03/02 09:17:43;;;;;;;48.83;21.92;;;;;;;5.23;97.38;99994.56;5097992;27;20019;-69
2023/03/02 09:20:09;;;;;;;58.08;28.40;;;;;;;5.32;97.95;99990.09;5106751;28;20065;-71
2023/03/02 09:22:35;;;;;;;47.45;26.50;;;;;;;5.19;98.63;99988.75;5104677;28;20446;-73
2023/03/02 09:25:05;;;;;;;53.20;29.00;;;;;;;5.16;98.75;99981.81;5105304;28;20485;-72
2023/03/02 09:27:31;;;;;;;47.72;25.55;;;;;;;5.21;99.17;99983.75;5105546;28;20049;-73
2023/03/02 09:29:57;;;;;;;42.38;22.67;;;;;;;5.14;99.33;99988.81;5103947;28;20088;-73
2023/03/02 09:32:22;;;;;;;51.00;26.52;;;;;;;5.12;99.10;99985.47;5103947;28;20027;-70
2023/03/02 09:34:48;;;;;;;54.65;27.95;;;;;;;5.24;98.34;99987.91;5107268;28;20027;-73
2023/03/02 09:37:14;;;;;;;56.05;27.23;;;;;;;5.39;99.18;99990.56;5103013;28;20031;-72
2023/03/02 09:39:39;;;;;;;45.70;25.52;;;;;;;5.48;98.84;99985.22;5097462;28;20023;-73
2023/03/02 09:42:12;;;;;;;48.03;26.75;;;;;;;5.59;97.96;99978.50;5100590;28;20028;-69
2023/03/02 09:44:49;;;;;;;46.65;25.20;;;;;;;5.55;99.55;99991.31;5103237;28;20097;-73
2023/03/02 09:47:35;;;;;;;50.33;28.90;;;;;;;5.56;98.94;99983.81;5095646;28;20633;-73
2023/03/02 09:50:03;;;;;;;56.80;30.80;;;;;;;5.57;99.24;99982.69;5120533;27;20038;-74
2023/03/02 09:52:39;;;;;;;46.03;26.23;;;;;;;5.65;97.40;99986.81;5100820;28;21736;-79
2023/03/02 09:55:15;;;;;;;50.92;28.33;;;;;;;5.65;98.08;99986.81;5102956;28;20509;-75
2023/03/02 09:57:42;;;;;;;58.25;30.55;;;;;;;5.57;99.63;99979.91;5104455;28;20020;-73
2023/03/02 10:00:17;;;;;;;52.22;28.45;;;;;;;5.53;99.12;99976.88;5103352;28;20501;-75
2023/03/02 10:02:49;;;;;;;48.63;25.73;;;;;;;5.25;100.00;99970.13;5101364;28;20080;-73
2023/03/02 10:05:23;;;;;;;51.67;25.85;;;;;;;5.40;100.00;99974.78;5098082;28;20043;-74
2023/03/02 10:07:48;;;;;;;50.10;26.65;;;;;;;5.38;99.29;99966.72;5102766;28;20088;-73
2023/03/02 10:10:22;;;;;;;49.22;26.13;;;;;;;5.43;99.99;99969.47;5107019;28;20024;-73
2023/03/02 10:12:59;;;;;;;47.15;24.73;;;;;;;5.31;100.00;99967.03;5105529;28;20039;-73
2023/03/02 10:15:36;;;;;;;58.28;28.10;;;;;;;5.45;100.00;99966.41;5105120;28;20050;-71
2023/03/02 10:18:20;;;;;;;54.83;27.25;;;;;;;5.44;100.00;99959.19;5107406;28;20455;-72
2023/03/02 10:21:00;;;;;;;49.53;25.83;;;;;;;5.40;100.00;99953.38;5106627;28;20028;-74
2023/03/02 10:24:08;;;;;;;50.50;27.45;;;;;;;5.51;100.00;99953.31;5106605;28;20573;-73
2023/03/02 10:26:33;;;;;;;67.55;37.05;;;;;;;5.40;100.00;99953.38;5093739;28;20089;-71
2023/03/02 10:29:23;;;;;;;72.07;40.90;;;;;;;5.52;100.00;99954.97;5106121;28;20722;-81
2023/03/02 10:31:52;;;;;;;52.27;26.77;;;;;;;5.52;99.47;99941.94;5102060;28;20374;-79
2023/03/02 10:34:18;;;;;;;53.33;31.10;;;;;;;5.53;100.00;99945.53;5108065;27;20490;-78
2023/03/02 10:36:46;;;;;;;46.70;24.85;;;;;;;5.50;100.00;99940.56;5110016;27;20043;-77
2023/03/02 10:39:14;;;;;;;49.25;27.25;;;;;;;5.59;99.95;99945.19;5104202;28;20085;-75
2023/03/02 10:41:52;;;;;;;49.95;27.35;;;;;;;5.67;100.00;99929.88;5108825;27;20877;-73
2023/03/02 10:44:36;;;;;;;48.95;29.10;;;;;;;5.76;100.00;99928.13;5107960;27;20036;-73
2023/03/02 10:47:03;;;;;;;54.55;28.20;;;;;;;5.65;99.83;99932.09;5109737;28;20040;-74
2023/03/02 10:49:33;;;;;;;47.38;26.88;;;;;;;5.74;99.84;99929.56;5110328;28;20390;-76
2023/03/02 10:52:19;;;;;;;44.50;25.20;;;;;;;5.64;98.68;99924.91;5110695;28;20035;-76
2023/03/02 10:54:46;;;;;;;46.35;25.20;;;;;;;5.56;99.71;99920.00;5105682;28;20024;-75
2023/03/02 10:57:23;;;;;;;49.97;27.67;;;;;;;5.67;99.45;99929.88;5105332;28;20115;-75
2023/03/02 10:59:51;;;;;;;46.92;26.80;;;;;;;5.56;99.14;99920.00;5107948;27;20043;-74
2023/03/02 11:02:22;;;;;;;46.25;26.13;;;;;;;5.67;99.13;99924.34;5109861;28;20038;-74
2023/03/02 11:05:22;;;;;;;50.08;26.05;;;;;;;5.80;99.11;99927.56;5109358;27;20063;-72
2023/03/02 11:08:18;;;;;;;93.13;52.70;;;;;;;5.72;98.09;99924.28;5071612;28;20054;-73
2023/03/02 11:11:02;;;;;;;84.32;48.35;;;;;;;5.72;98.91;99920.66;5081392;28;20046;-73
2023/03/02 11:13:31;;;;;;;92.15;56.72;;;;;;;5.56;100.00;99914.44;5093552;27;20148;-73
2023/03/02 11:15:59;;;;;;;68.13;37.83;;;;;;;5.41;100.00;99904.28;5110165;28;20516;-72
2023/03/02 11:18:36;;;;;;;61.22;37.20;;;;;;;5.43;100.00;99913.16;5111140;27;20454;-73
2023/03/02 11:21:13;;;;;;;64.63;39.75;;;;;;;5.48;100.00;99908.38;5108880;28;20062;-73
2023/03/02 11:23:57;;;;;;;52.47;29.73;;;;;;;5.50;100.00;99912.81;5111241;28;20423;-73
2023/03/02 11:26:27;;;;;;;50.33;30.73;;;;;;;5.68;100.00;99919.59;5108058;28;20115;-73